createdAt,value
2023-02-20T00:00:01.726Z,247.72
2023-02-20T00:00:11.707Z,247.69
2023-02-20T00:00:21.719Z,247.73
2023-02-20T00:00:31.719Z,247.64
2023-02-20T00:00:41.726Z,247.75
2023-02-20T00:00:51.723Z,247.87
2023-02-20T00:01:01.707Z,247.76
2023-02-20T00:01:11.715Z,247.69
2023-02-20T00:01:21.719Z,246.79
2023-02-20T00:01:31.701Z,246.32
2023-02-20T00:01:41.715Z,246.64
2023-02-20T00:01:51.693Z,246.58
2023-02-20T00:02:01.693Z,246.42
2023-02-20T00:02:11.727Z,246.43
2023-02-20T00:02:21.734Z,246.24
2023-02-20T00:02:31.836Z,246.04
2023-02-20T00:02:41.778Z,245.76
2023-02-20T00:02:51.695Z,245.95
2023-02-20T00:03:01.682Z,246.04
2023-02-20T00:03:11.932Z,246.07
2023-02-20T00:03:21.723Z,245.98
2023-02-20T00:03:31.750Z,246.35
2023-02-20T00:03:41.703Z,246.31
2023-02-20T00:03:51.772Z,246.37
2023-02-20T00:04:01.725Z,247.14
2023-02-20T00:04:11.687Z,247.37
2023-02-20T00:04:21.689Z,247.84
2023-02-20T00:04:31.695Z,248.61
2023-02-20T00:04:41.693Z,249.05
2023-02-20T00:04:51.689Z,248.96
2023-02-20T00:05:01.700Z,248.63
2023-02-20T00:05:11.691Z,248.33
2023-02-20T00:05:21.707Z,248.48
2023-02-20T00:05:31.682Z,248.09
2023-02-20T00:05:41.697Z,247.88
2023-02-20T00:05:51.700Z,247.91
2023-02-20T00:06:01.689Z,247.97
2023-02-20T00:06:11.913Z,247.88
2023-02-20T00:06:21.757Z,248.49
2023-02-20T00:06:31.758Z,248.40
2023-02-20T00:06:43.209Z,248.80
2023-02-20T00:06:51.741Z,250.23
2023-02-20T00:07:01.753Z,250.00
2023-02-20T00:07:11.755Z,249.65
2023-02-20T00:07:21.748Z,248.73
2023-02-20T00:07:31.759Z,248.59
2023-02-20T00:07:41.786Z,249.05
2023-02-20T00:07:51.737Z,249.54
2023-02-20T00:08:01.760Z,250.00
2023-02-20T00:08:11.750Z,249.82
2023-02-20T00:08:21.777Z,250.00
2023-02-20T00:08:31.724Z,249.64
2023-02-20T00:08:41.726Z,249.34
2023-02-20T00:08:51.729Z,249.09
2023-02-20T00:09:01.738Z,249.53
2023-02-20T00:09:11.749Z,250.00
2023-02-20T00:09:21.757Z,249.97
2023-02-20T00:09:31.726Z,249.93
2023-02-20T00:09:41.746Z,249.78
2023-02-20T00:09:51.727Z,250.00
2023-02-20T00:10:01.733Z,249.43
2023-02-20T00:10:11.726Z,249.98
2023-02-20T00:10:21.734Z,249.93
2023-02-20T00:10:31.736Z,249.82
2023-02-20T00:10:41.742Z,249.86
2023-02-20T00:10:51.735Z,249.68
2023-02-20T00:11:01.749Z,249.38
2023-02-20T00:11:11.728Z,249.02
2023-02-20T00:11:21.735Z,248.86
2023-02-20T00:11:31.748Z,249.10
2023-02-20T00:11:41.744Z,248.67
2023-02-20T00:11:51.745Z,249.40
2023-02-20T00:12:01.729Z,249.21
2023-02-20T00:12:11.717Z,249.74
2023-02-20T00:12:21.738Z,249.52
2023-02-20T00:12:31.731Z,249.96
2023-02-20T00:12:41.729Z,250.00
2023-02-20T00:12:51.741Z,249.24
2023-02-20T00:13:01.730Z,249.37
2023-02-20T00:13:11.732Z,249.43
2023-02-20T00:13:21.806Z,249.36
2023-02-20T00:13:31.716Z,249.53
2023-02-20T00:13:41.714Z,249.78
2023-02-20T00:13:51.701Z,249.58
2023-02-20T00:14:01.736Z,249.35
2023-02-20T00:14:11.737Z,249.26
2023-02-20T00:14:21.702Z,248.94
2023-02-20T00:14:31.729Z,248.63
2023-02-20T00:14:41.718Z,248.51
2023-02-20T00:14:51.707Z,248.40
2023-02-20T00:15:01.703Z,248.15
2023-02-20T00:15:11.707Z,248.05
2023-02-20T00:15:21.716Z,248.19
2023-02-20T00:15:31.777Z,247.89
2023-02-20T00:15:41.726Z,247.86
2023-02-20T00:15:51.772Z,248.27
2023-02-20T00:16:01.739Z,248.57
2023-02-20T00:16:11.943Z,248.71
2023-02-20T00:16:21.721Z,249.18
2023-02-20T00:16:31.713Z,249.18
2023-02-20T00:16:41.712Z,249.58
2023-02-20T00:16:51.704Z,249.92
2023-02-20T00:17:01.712Z,249.69
2023-02-20T00:17:11.712Z,249.17
2023-02-20T00:17:21.697Z,249.81
2023-02-20T00:17:31.714Z,250.00
2023-02-20T00:17:41.713Z,249.80
2023-02-20T00:17:51.707Z,249.59
2023-02-20T00:18:01.717Z,249.38
2023-02-20T00:18:11.717Z,249.18
2023-02-20T00:18:21.696Z,249.18
2023-02-20T00:18:31.760Z,249.20
2023-02-20T00:18:41.676Z,249.12
2023-02-20T00:18:51.692Z,249.60
2023-02-20T00:19:01.682Z,249.83
2023-02-20T00:19:11.685Z,249.23
2023-02-20T00:19:21.731Z,249.45
2023-02-20T00:19:31.709Z,249.45
2023-02-20T00:19:41.696Z,249.41
2023-02-20T00:19:51.690Z,249.38
2023-02-20T00:20:01.721Z,249.15
2023-02-20T00:20:11.704Z,248.99
2023-02-20T00:20:21.699Z,248.65
2023-02-20T00:20:31.699Z,248.55
2023-02-20T00:20:41.692Z,248.30
2023-02-20T00:20:51.701Z,248.20
2023-02-20T00:21:01.698Z,247.76
2023-02-20T00:21:11.688Z,247.40
2023-02-20T00:21:21.692Z,247.20
2023-02-20T00:21:31.697Z,246.88
2023-02-20T00:21:41.701Z,246.48
2023-02-20T00:21:51.711Z,246.71
2023-02-20T00:22:01.696Z,247.37
2023-02-20T00:22:11.685Z,247.13
2023-02-20T00:22:21.690Z,246.89
2023-02-20T00:22:31.693Z,246.24
2023-02-20T00:22:41.695Z,246.32
2023-02-20T00:22:51.690Z,246.09
2023-02-20T00:23:01.707Z,245.60
2023-02-20T00:23:11.669Z,245.26
2023-02-20T00:23:21.700Z,244.32
2023-02-20T00:23:31.693Z,244.64
2023-02-20T00:23:41.744Z,244.66
2023-02-20T00:23:51.684Z,244.26
2023-02-20T00:24:01.676Z,243.89
2023-02-20T00:24:11.680Z,243.41
2023-02-20T00:24:21.697Z,243.84
2023-02-20T00:24:31.684Z,243.39
2023-02-20T00:24:41.671Z,243.01
2023-02-20T00:24:51.680Z,243.50
2023-02-20T00:25:01.715Z,243.59
2023-02-20T00:25:11.674Z,243.73
2023-02-20T00:25:21.661Z,244.24
2023-02-20T00:25:31.686Z,244.39
2023-02-20T00:25:41.674Z,245.01
2023-02-20T00:25:51.684Z,245.01
2023-02-20T00:26:01.665Z,245.54
2023-02-20T00:26:12.068Z,245.59
2023-02-20T00:26:21.661Z,245.96
2023-02-20T00:26:31.696Z,246.01
2023-02-20T00:26:41.674Z,245.41
2023-02-20T00:26:51.665Z,245.63
2023-02-20T00:27:01.669Z,245.70
2023-02-20T00:27:11.666Z,245.25
2023-02-20T00:27:21.668Z,244.97
2023-02-20T00:27:31.689Z,244.59
2023-02-20T00:27:41.690Z,244.88
2023-02-20T00:27:51.669Z,244.83
2023-02-20T00:28:01.653Z,245.20
2023-02-20T00:28:11.662Z,245.23
2023-02-20T00:28:21.659Z,245.59
2023-02-20T00:28:31.665Z,245.39
2023-02-20T00:28:41.649Z,244.86
2023-02-20T00:28:51.713Z,244.65
2023-02-20T00:29:01.662Z,244.48
2023-02-20T00:29:11.665Z,244.82
2023-02-20T00:29:21.655Z,245.28
2023-02-20T00:29:34.137Z,245.30
2023-02-20T00:29:41.657Z,245.30
2023-02-20T00:29:51.667Z,245.31
2023-02-20T00:30:01.733Z,245.33
2023-02-20T00:30:11.702Z,245.37
2023-02-20T00:30:21.695Z,245.39
2023-02-20T00:30:31.688Z,245.40
2023-02-20T00:30:41.705Z,245.44
2023-02-20T00:30:51.679Z,245.44
2023-02-20T00:31:01.672Z,245.46
2023-02-20T00:31:11.678Z,245.47
2023-02-20T00:31:21.716Z,245.46
2023-02-20T00:31:31.655Z,245.44
2023-02-20T00:31:41.675Z,245.39
2023-02-20T00:31:51.668Z,245.44
2023-02-20T00:32:01.685Z,245.51
2023-02-20T00:32:11.651Z,245.33
2023-02-20T00:32:21.655Z,245.17
2023-02-20T00:32:31.665Z,244.70
2023-02-20T00:32:41.662Z,244.45
2023-02-20T00:32:51.645Z,243.96
2023-02-20T00:33:01.635Z,244.61
2023-02-20T00:33:11.646Z,244.07
2023-02-20T00:33:21.640Z,243.58
2023-02-20T00:33:31.640Z,244.27
2023-02-20T00:33:41.637Z,243.84
2023-02-20T00:33:51.655Z,243.81
2023-02-20T00:34:01.692Z,243.44
2023-02-20T00:34:11.653Z,243.59
2023-02-20T00:34:21.673Z,243.52
2023-02-20T00:34:31.640Z,243.38
2023-02-20T00:34:41.637Z,243.78
2023-02-20T00:34:51.621Z,243.75
2023-02-20T00:35:01.655Z,243.65
2023-02-20T00:35:11.628Z,244.01
2023-02-20T00:35:21.618Z,243.80
2023-02-20T00:35:31.632Z,244.08
2023-02-20T00:35:41.637Z,244.04
2023-02-20T00:35:51.641Z,243.92
2023-02-20T00:36:01.648Z,243.47
2023-02-20T00:36:11.794Z,243.56
2023-02-20T00:36:21.639Z,243.23
2023-02-20T00:36:31.628Z,242.66
2023-02-20T00:36:41.627Z,242.73
2023-02-20T00:36:51.630Z,241.72
2023-02-20T00:37:01.617Z,240.82
2023-02-20T00:37:11.648Z,240.04
2023-02-20T00:37:21.637Z,239.61
2023-02-20T00:37:31.633Z,238.84
2023-02-20T00:37:41.629Z,237.91
2023-02-20T00:37:51.635Z,238.13
2023-02-20T00:38:01.637Z,237.91
2023-02-20T00:38:11.648Z,237.74
2023-02-20T00:38:21.621Z,238.00
2023-02-20T00:38:31.616Z,237.46
2023-02-20T00:38:41.638Z,237.39
2023-02-20T00:38:51.636Z,237.30
2023-02-20T00:39:01.645Z,237.21
2023-02-20T00:39:11.665Z,237.32
2023-02-20T00:39:21.661Z,237.31
2023-02-20T00:39:31.643Z,236.81
2023-02-20T00:39:41.626Z,236.61
2023-02-20T00:39:51.615Z,236.56
2023-02-20T00:40:01.623Z,236.07
2023-02-20T00:40:11.648Z,235.84
2023-02-20T00:40:21.621Z,235.99
2023-02-20T00:40:31.616Z,235.58
2023-02-20T00:40:41.615Z,235.67
2023-02-20T00:40:51.605Z,235.60
2023-02-20T00:41:01.626Z,235.38
2023-02-20T00:41:11.613Z,235.26
2023-02-20T00:41:21.609Z,235.09
2023-02-20T00:41:31.639Z,234.64
2023-02-20T00:41:41.612Z,234.63
2023-02-20T00:41:51.612Z,234.20
2023-02-20T00:42:01.622Z,234.07
2023-02-20T00:42:11.632Z,233.60
2023-02-20T00:42:21.609Z,233.49
2023-02-20T00:42:31.602Z,233.44
2023-02-20T00:42:41.612Z,234.08
2023-02-20T00:42:51.611Z,234.57
2023-02-20T00:43:01.604Z,234.93
2023-02-20T00:43:11.638Z,234.70
2023-02-20T00:43:21.641Z,235.22
2023-02-20T00:43:31.635Z,235.01
2023-02-20T00:43:41.654Z,234.70
2023-02-20T00:43:51.662Z,234.43
2023-02-20T00:44:01.640Z,234.39
2023-02-20T00:44:11.666Z,234.40
2023-02-20T00:44:21.734Z,234.35
2023-02-20T00:44:31.693Z,234.50
2023-02-20T00:44:41.692Z,234.38
2023-02-20T00:44:51.703Z,234.70
2023-02-20T00:45:01.693Z,234.72
2023-02-20T00:45:11.738Z,235.05
2023-02-20T00:45:21.746Z,234.37
2023-02-20T00:45:31.736Z,234.75
2023-02-20T00:45:41.763Z,234.45
2023-02-20T00:45:51.766Z,234.75
2023-02-20T00:46:01.801Z,233.98
2023-02-20T00:46:12.102Z,234.27
2023-02-20T00:46:21.804Z,234.03
2023-02-20T00:46:31.811Z,233.99
2023-02-20T00:46:41.788Z,234.63
2023-02-20T00:46:51.770Z,235.02
2023-02-20T00:47:01.781Z,235.72
2023-02-20T00:47:11.784Z,235.50
2023-02-20T00:47:21.781Z,236.06
2023-02-20T00:47:31.772Z,235.99
2023-02-20T00:47:41.779Z,236.38
2023-02-20T00:47:51.785Z,235.97
2023-02-20T00:48:01.784Z,236.62
2023-02-20T00:48:11.784Z,236.73
2023-02-20T00:48:21.767Z,237.14
2023-02-20T00:48:31.786Z,237.33
2023-02-20T00:48:41.780Z,237.40
2023-02-20T00:48:51.784Z,237.50
2023-02-20T00:49:01.794Z,237.81
2023-02-20T00:49:11.759Z,237.93
2023-02-20T00:49:21.842Z,237.97
2023-02-20T00:49:31.752Z,237.80
2023-02-20T00:49:41.762Z,238.19
2023-02-20T00:49:51.777Z,238.49
2023-02-20T00:50:01.753Z,238.29
2023-02-20T00:50:11.799Z,238.00
2023-02-20T00:50:21.754Z,238.32
2023-02-20T00:50:31.769Z,238.43
2023-02-20T00:50:41.751Z,238.41
2023-02-20T00:50:51.757Z,238.24
2023-02-20T00:51:01.765Z,238.55
2023-02-20T00:51:11.760Z,238.84
2023-02-20T00:51:21.757Z,238.84
2023-02-20T00:51:31.765Z,238.53
2023-02-20T00:51:41.778Z,238.53
2023-02-20T00:51:51.777Z,238.55
2023-02-20T00:52:01.773Z,237.85
2023-02-20T00:52:12.529Z,237.72
2023-02-20T00:52:21.815Z,237.64
2023-02-20T00:52:31.811Z,237.72
2023-02-20T00:52:41.806Z,237.33
2023-02-20T00:52:51.803Z,237.60
2023-02-20T00:53:01.779Z,237.38
2023-02-20T00:53:11.791Z,237.27
2023-02-20T00:53:21.789Z,237.25
2023-02-20T00:53:31.817Z,237.45
2023-02-20T00:53:41.799Z,237.70
2023-02-20T00:53:51.799Z,237.69
2023-02-20T00:54:01.813Z,237.81
2023-02-20T00:54:11.794Z,237.40
2023-02-20T00:54:21.794Z,237.51
2023-02-20T00:54:31.880Z,237.66
2023-02-20T00:54:41.790Z,237.57
2023-02-20T00:54:51.782Z,237.44
2023-02-20T00:55:01.800Z,238.17
2023-02-20T00:55:11.797Z,238.06
2023-02-20T00:55:21.800Z,237.75
2023-02-20T00:55:31.800Z,238.20
2023-02-20T00:55:41.789Z,237.88
2023-02-20T00:55:51.794Z,238.02
2023-02-20T00:56:01.799Z,238.41
2023-02-20T00:56:11.971Z,238.34
2023-02-20T00:56:21.794Z,238.43
2023-02-20T00:56:31.804Z,237.95
2023-02-20T00:56:41.799Z,237.66
2023-02-20T00:56:51.774Z,237.17
2023-02-20T00:57:01.791Z,237.15
2023-02-20T00:57:11.790Z,236.30
2023-02-20T00:57:21.790Z,236.65
2023-02-20T00:57:31.801Z,236.76
2023-02-20T00:57:41.791Z,237.26
2023-02-20T00:57:51.784Z,236.88
2023-02-20T00:58:01.780Z,236.90
2023-02-20T00:58:11.790Z,236.75
2023-02-20T00:58:21.775Z,237.02
2023-02-20T00:58:31.798Z,236.78
2023-02-20T00:58:41.801Z,237.33
2023-02-20T00:58:51.782Z,237.35
2023-02-20T00:59:01.779Z,237.42
2023-02-20T00:59:11.772Z,237.85
2023-02-20T00:59:21.792Z,237.38
2023-02-20T00:59:31.781Z,237.35
2023-02-20T00:59:41.825Z,237.29
2023-02-20T00:59:51.792Z,237.72
2023-02-20T01:00:01.786Z,237.69
2023-02-20T01:00:11.796Z,237.65
2023-02-20T01:00:21.781Z,238.45
2023-02-20T01:00:31.774Z,238.02
2023-02-20T01:00:41.788Z,237.87
2023-02-20T01:00:51.787Z,238.12
2023-02-20T01:01:01.779Z,238.19
2023-02-20T01:01:11.796Z,238.16
2023-02-20T01:01:21.795Z,238.42
2023-02-20T01:01:31.816Z,238.24
2023-02-20T01:01:41.831Z,238.40
2023-02-20T01:01:51.809Z,238.08
2023-02-20T01:02:01.772Z,237.69
2023-02-20T01:02:11.791Z,237.96
2023-02-20T01:02:21.767Z,237.63
2023-02-20T01:02:31.789Z,237.95
2023-02-20T01:02:41.838Z,237.93
2023-02-20T01:02:51.831Z,238.38
2023-02-20T01:03:01.831Z,238.60
2023-02-20T01:03:11.812Z,238.35
2023-02-20T01:03:21.812Z,238.60
2023-02-20T01:03:31.831Z,239.10
2023-02-20T01:03:41.850Z,239.91
2023-02-20T01:03:51.836Z,240.13
2023-02-20T01:04:01.836Z,240.35
2023-02-20T01:04:11.886Z,240.05
2023-02-20T01:04:21.881Z,240.36
2023-02-20T01:04:31.902Z,240.24
2023-02-20T01:04:41.955Z,240.17
2023-02-20T01:04:51.898Z,239.96
2023-02-20T01:05:01.899Z,239.76
2023-02-20T01:05:11.912Z,239.45
2023-02-20T01:05:21.921Z,239.26
2023-02-20T01:05:31.916Z,238.91
2023-02-20T01:05:41.973Z,238.77
2023-02-20T01:05:51.961Z,238.89
2023-02-20T01:06:01.946Z,239.09
2023-02-20T01:06:12.302Z,239.25
2023-02-20T01:06:21.977Z,239.24
2023-02-20T01:06:31.965Z,239.43
2023-02-20T01:06:41.964Z,239.06
2023-02-20T01:06:51.980Z,239.13
2023-02-20T01:07:01.960Z,239.22
2023-02-20T01:07:11.954Z,239.61
2023-02-20T01:07:21.958Z,239.71
2023-02-20T01:07:31.970Z,239.75
2023-02-20T01:07:41.941Z,240.29
2023-02-20T01:07:51.967Z,240.60
2023-02-20T01:08:01.972Z,241.09
2023-02-20T01:08:11.959Z,240.89
2023-02-20T01:08:21.962Z,241.27
2023-02-20T01:08:31.952Z,241.40
2023-02-20T01:08:41.969Z,240.77
2023-02-20T01:08:51.957Z,240.63
2023-02-20T01:09:01.966Z,240.40
2023-02-20T01:09:11.958Z,240.29
2023-02-20T01:09:21.975Z,240.48
2023-02-20T01:09:31.942Z,240.27
2023-02-20T01:09:41.969Z,240.54
2023-02-20T01:09:51.994Z,240.44
2023-02-20T01:10:01.963Z,240.12
2023-02-20T01:10:11.965Z,239.78
2023-02-20T01:10:21.967Z,239.68
2023-02-20T01:10:31.955Z,239.95
2023-02-20T01:10:41.943Z,239.71
2023-02-20T01:10:51.961Z,239.76
2023-02-20T01:11:01.966Z,239.32
2023-02-20T01:11:11.966Z,239.35
2023-02-20T01:11:21.960Z,238.92
2023-02-20T01:11:31.969Z,239.04
2023-02-20T01:11:41.932Z,239.14
2023-02-20T01:11:51.962Z,239.53
2023-02-20T01:12:01.955Z,239.03
2023-02-20T01:12:11.943Z,239.42
2023-02-20T01:12:21.970Z,239.50
2023-02-20T01:12:31.964Z,239.77
2023-02-20T01:12:41.970Z,239.38
2023-02-20T01:12:51.978Z,239.01
2023-02-20T01:13:01.967Z,239.15
2023-02-20T01:13:12.011Z,239.00
2023-02-20T01:13:21.995Z,239.37
2023-02-20T01:13:32.013Z,239.60
2023-02-20T01:13:42.042Z,239.63
2023-02-20T01:13:52.021Z,239.32
2023-02-20T01:14:02.020Z,239.33
2023-02-20T01:14:12.059Z,238.89
2023-02-20T01:14:22.063Z,238.65
2023-02-20T01:14:32.053Z,238.94
2023-02-20T01:14:42.075Z,239.13
2023-02-20T01:14:52.132Z,238.88
2023-02-20T01:15:02.086Z,238.97
2023-02-20T01:15:12.167Z,239.75
2023-02-20T01:15:22.097Z,240.00
2023-02-20T01:15:32.101Z,240.43
2023-02-20T01:15:42.152Z,240.46
2023-02-20T01:15:52.145Z,241.15
2023-02-20T01:16:02.184Z,241.50
2023-02-20T01:16:12.462Z,240.89
2023-02-20T01:16:22.199Z,241.09
2023-02-20T01:16:32.288Z,241.16
2023-02-20T01:16:42.163Z,240.66
2023-02-20T01:16:52.158Z,240.54
2023-02-20T01:17:02.144Z,240.63
2023-02-20T01:17:12.156Z,240.06
2023-02-20T01:17:22.165Z,239.73
2023-02-20T01:17:32.154Z,239.81
2023-02-20T01:17:42.169Z,239.76
2023-02-20T01:17:52.155Z,239.39
2023-02-20T01:18:02.154Z,239.66
2023-02-20T01:18:12.168Z,240.14
2023-02-20T01:18:22.202Z,239.90
2023-02-20T01:18:32.115Z,239.92
2023-02-20T01:18:42.172Z,240.05
2023-02-20T01:18:52.143Z,239.46
2023-02-20T01:19:02.166Z,240.24
2023-02-20T01:19:12.201Z,240.63
2023-02-20T01:19:22.224Z,240.83
2023-02-20T01:19:32.150Z,240.70
2023-02-20T01:19:42.213Z,240.54
2023-02-20T01:19:52.254Z,240.25
2023-02-20T01:20:02.209Z,240.10
2023-02-20T01:20:12.207Z,239.87
2023-02-20T01:20:22.293Z,239.99
2023-02-20T01:20:32.218Z,239.93
2023-02-20T01:20:42.231Z,239.41
2023-02-20T01:20:52.220Z,239.21
2023-02-20T01:21:02.262Z,239.61
2023-02-20T01:21:12.273Z,238.98
2023-02-20T01:21:22.292Z,239.24
2023-02-20T01:21:32.260Z,238.91
2023-02-20T01:21:42.292Z,239.00
2023-02-20T01:21:52.296Z,238.81
2023-02-20T01:22:02.317Z,239.10
2023-02-20T01:22:12.294Z,239.69
2023-02-20T01:22:22.385Z,240.37
2023-02-20T01:22:32.309Z,240.61
2023-02-20T01:22:42.341Z,241.14
2023-02-20T01:22:52.356Z,241.47
2023-02-20T01:23:02.336Z,241.60
2023-02-20T01:23:12.360Z,241.80
2023-02-20T01:23:22.357Z,241.54
2023-02-20T01:23:32.365Z,241.35
2023-02-20T01:23:42.394Z,240.87
2023-02-20T01:23:52.402Z,240.57
2023-02-20T01:24:02.383Z,240.08
2023-02-20T01:24:12.419Z,239.87
2023-02-20T01:24:22.423Z,239.40
2023-02-20T01:24:32.425Z,238.60
2023-02-20T01:24:42.436Z,238.17
2023-02-20T01:24:52.513Z,238.17
2023-02-20T01:25:02.434Z,238.00
2023-02-20T01:25:12.488Z,237.93
2023-02-20T01:25:22.480Z,238.12
2023-02-20T01:25:32.461Z,238.09
2023-02-20T01:25:42.509Z,238.17
2023-02-20T01:25:52.504Z,238.25
2023-02-20T01:26:02.526Z,237.91
2023-02-20T01:26:12.848Z,238.77
2023-02-20T01:26:22.493Z,239.07
2023-02-20T01:26:32.501Z,239.26
2023-02-20T01:26:42.520Z,239.24
2023-02-20T01:26:52.515Z,238.99
2023-02-20T01:27:02.509Z,239.32
2023-02-20T01:27:12.517Z,239.91
2023-02-20T01:27:22.509Z,239.53
2023-02-20T01:27:32.506Z,239.54
2023-02-20T01:27:42.512Z,239.65
2023-02-20T01:27:52.524Z,239.45
2023-02-20T01:28:02.493Z,239.58
2023-02-20T01:28:12.509Z,239.65
2023-02-20T01:28:22.512Z,239.10
2023-02-20T01:28:32.519Z,239.40
2023-02-20T01:28:42.529Z,239.09
2023-02-20T01:28:52.517Z,239.08
2023-02-20T01:29:02.491Z,239.34
2023-02-20T01:29:12.533Z,239.58
2023-02-20T01:29:22.499Z,239.74
2023-02-20T01:29:32.496Z,240.41
2023-02-20T01:29:42.500Z,240.48
2023-02-20T01:29:52.540Z,241.17
2023-02-20T01:30:02.508Z,241.80
2023-02-20T01:30:12.623Z,242.52
2023-02-20T01:30:22.510Z,243.17
2023-02-20T01:30:32.529Z,243.65
2023-02-20T01:30:42.498Z,243.99
2023-02-20T01:30:52.496Z,244.04
2023-02-20T01:31:02.541Z,244.57
2023-02-20T01:31:12.594Z,245.07
2023-02-20T01:31:22.548Z,245.25
2023-02-20T01:31:32.568Z,244.87
2023-02-20T01:31:42.531Z,244.66
2023-02-20T01:31:52.584Z,245.27
2023-02-20T01:32:02.593Z,245.46
2023-02-20T01:32:12.518Z,246.24
2023-02-20T01:32:22.495Z,246.78
2023-02-20T01:32:32.498Z,247.39
2023-02-20T01:32:42.518Z,247.84
2023-02-20T01:32:52.500Z,248.29
2023-02-20T01:33:02.530Z,249.30
2023-02-20T01:33:12.546Z,249.82
2023-02-20T01:33:22.588Z,249.06
2023-02-20T01:33:32.543Z,248.81
2023-02-20T01:33:42.568Z,247.65
2023-02-20T01:33:52.557Z,247.20
2023-02-20T01:34:02.563Z,246.58
2023-02-20T01:34:12.591Z,245.91
2023-02-20T01:34:22.844Z,245.13
2023-02-20T01:34:32.595Z,245.15
2023-02-20T01:34:42.601Z,245.07
2023-02-20T01:34:52.678Z,245.01
2023-02-20T01:35:02.619Z,245.19
2023-02-20T01:35:12.630Z,245.08
2023-02-20T01:35:22.862Z,245.13
2023-02-20T01:35:32.647Z,245.25
2023-02-20T01:35:42.667Z,244.85
2023-02-20T01:35:52.658Z,244.64
2023-02-20T01:36:02.660Z,245.18
2023-02-20T01:36:13.073Z,245.79
2023-02-20T01:36:22.894Z,246.80
2023-02-20T01:36:32.675Z,247.89
2023-02-20T01:36:42.671Z,249.03
2023-02-20T01:36:52.673Z,249.23
2023-02-20T01:37:02.683Z,249.26
2023-02-20T01:37:12.660Z,249.62
2023-02-20T01:37:22.690Z,249.37
2023-02-20T01:37:32.664Z,249.28
2023-02-20T01:37:42.678Z,248.49
2023-02-20T01:37:52.678Z,248.07
2023-02-20T01:38:02.674Z,247.63
2023-02-20T01:38:12.694Z,247.79
2023-02-20T01:38:22.694Z,247.83
2023-02-20T01:38:32.699Z,247.54
2023-02-20T01:38:42.721Z,247.90
2023-02-20T01:38:52.715Z,247.95
2023-02-20T01:39:02.744Z,247.92
2023-02-20T01:39:12.731Z,248.24
2023-02-20T01:39:22.728Z,248.62
2023-02-20T01:39:32.779Z,248.28
2023-02-20T01:39:42.784Z,248.31
2023-02-20T01:39:52.844Z,248.20
2023-02-20T01:40:02.760Z,248.13
2023-02-20T01:40:12.803Z,248.16
2023-02-20T01:40:22.777Z,248.31
2023-02-20T01:40:32.796Z,248.53
2023-02-20T01:40:42.827Z,249.17
2023-02-20T01:40:52.825Z,249.53
2023-02-20T01:41:02.815Z,249.87
2023-02-20T01:41:12.838Z,250.00
2023-02-20T01:41:22.833Z,250.00
2023-02-20T01:41:32.826Z,249.54
2023-02-20T01:41:42.871Z,249.87
2023-02-20T01:41:52.880Z,249.45
2023-02-20T01:42:02.886Z,249.19
2023-02-20T01:42:12.910Z,249.56
2023-02-20T01:42:22.892Z,249.94
2023-02-20T01:42:32.894Z,249.94
2023-02-20T01:42:42.920Z,250.08
2023-02-20T01:42:52.915Z,249.99
2023-02-20T01:43:02.917Z,249.66
2023-02-20T01:43:12.924Z,250.00
2023-02-20T01:43:22.942Z,250.00
2023-02-20T01:43:32.945Z,250.00
2023-02-20T01:43:42.967Z,249.94
2023-02-20T01:43:52.981Z,249.52
2023-02-20T01:44:02.952Z,249.04
2023-02-20T01:44:12.988Z,248.31
2023-02-20T01:44:23.008Z,248.27
2023-02-20T01:44:33.016Z,247.51
2023-02-20T01:44:43.016Z,247.53
2023-02-20T01:44:53.087Z,247.64
2023-02-20T01:45:03.013Z,247.51
2023-02-20T01:45:13.042Z,247.67
2023-02-20T01:45:23.025Z,247.83
2023-02-20T01:45:33.052Z,248.32
2023-02-20T01:45:43.070Z,248.11
2023-02-20T01:45:53.040Z,247.87
2023-02-20T01:46:03.063Z,247.95
2023-02-20T01:46:13.361Z,247.71
2023-02-20T01:46:23.118Z,247.92
2023-02-20T01:46:33.109Z,248.56
2023-02-20T01:46:43.128Z,248.39
2023-02-20T01:46:53.163Z,248.24
2023-02-20T01:47:03.099Z,248.02
2023-02-20T01:47:13.104Z,247.69
2023-02-20T01:47:23.083Z,247.68
2023-02-20T01:47:33.083Z,247.34
2023-02-20T01:47:43.074Z,246.75
2023-02-20T01:47:53.097Z,246.70
2023-02-20T01:48:03.084Z,246.81
2023-02-20T01:48:13.075Z,246.47
2023-02-20T01:48:23.077Z,246.00
2023-02-20T01:48:33.075Z,245.84
2023-02-20T01:48:43.079Z,245.42
2023-02-20T01:48:53.088Z,245.37
2023-02-20T01:49:03.097Z,245.27
2023-02-20T01:49:13.082Z,244.75
2023-02-20T01:49:23.084Z,244.73
2023-02-20T01:49:33.084Z,244.68
2023-02-20T01:49:43.074Z,243.91
2023-02-20T01:49:53.061Z,243.73
2023-02-20T01:50:03.153Z,243.78
2023-02-20T01:50:13.068Z,243.20
2023-02-20T01:50:23.078Z,243.13
2023-02-20T01:50:33.086Z,243.06
2023-02-20T01:50:43.083Z,243.54
2023-02-20T01:50:53.076Z,243.40
2023-02-20T01:51:03.073Z,243.74
2023-02-20T01:51:13.078Z,243.91
2023-02-20T01:51:23.068Z,243.95
2023-02-20T01:51:33.091Z,243.96
2023-02-20T01:51:43.110Z,244.29
2023-02-20T01:51:53.130Z,244.21
2023-02-20T01:52:03.121Z,244.56
2023-02-20T01:52:13.143Z,244.95
2023-02-20T01:52:23.123Z,245.26
2023-02-20T01:52:33.135Z,245.36
2023-02-20T01:52:43.149Z,245.80
2023-02-20T01:52:53.155Z,245.69
2023-02-20T01:53:03.144Z,245.23
2023-02-20T01:53:13.180Z,244.57
2023-02-20T01:53:23.166Z,244.18
2023-02-20T01:53:33.185Z,244.17
2023-02-20T01:53:43.230Z,243.94
2023-02-20T01:53:53.217Z,243.91
2023-02-20T01:54:03.200Z,243.18
2023-02-20T01:54:13.233Z,242.90
2023-02-20T01:54:23.243Z,242.77
2023-02-20T01:54:33.246Z,242.71
2023-02-20T01:54:43.253Z,242.93
2023-02-20T01:54:53.260Z,243.00
2023-02-20T01:55:03.318Z,242.91
2023-02-20T01:55:13.275Z,242.88
2023-02-20T01:55:23.285Z,242.96
2023-02-20T01:55:33.267Z,243.11
2023-02-20T01:55:43.331Z,243.58
2023-02-20T01:55:53.321Z,243.44
2023-02-20T01:56:03.319Z,243.51
2023-02-20T01:56:13.555Z,244.06
2023-02-20T01:56:23.350Z,243.97
2023-02-20T01:56:33.340Z,244.17
2023-02-20T01:56:43.344Z,243.96
2023-02-20T01:56:53.342Z,244.10
2023-02-20T01:57:03.343Z,244.21
2023-02-20T01:57:13.325Z,244.36
2023-02-20T01:57:23.316Z,244.16
2023-02-20T01:57:33.323Z,243.94
2023-02-20T01:57:43.311Z,243.87
2023-02-20T01:57:53.299Z,243.91
2023-02-20T01:58:03.345Z,244.12
2023-02-20T01:58:13.325Z,244.43
2023-02-20T01:58:23.308Z,244.28
2023-02-20T01:58:33.323Z,244.50
2023-02-20T01:58:43.342Z,244.73
2023-02-20T01:58:53.304Z,244.77
2023-02-20T01:59:03.322Z,245.12
2023-02-20T01:59:13.317Z,245.12
2023-02-20T01:59:23.330Z,245.65
2023-02-20T01:59:33.311Z,245.81
2023-02-20T01:59:43.313Z,245.52
2023-02-20T01:59:53.319Z,245.53
2023-02-20T02:00:03.318Z,246.34
2023-02-20T02:00:13.369Z,246.22
2023-02-20T02:00:23.306Z,245.85
2023-02-20T02:00:33.345Z,245.20
2023-02-20T02:00:43.366Z,244.86
2023-02-20T02:00:53.369Z,244.68
2023-02-20T02:01:03.356Z,244.61
2023-02-20T02:01:13.316Z,243.79
2023-02-20T02:01:23.317Z,244.12
2023-02-20T02:01:33.425Z,243.86
2023-02-20T02:01:43.350Z,243.78
2023-02-20T02:01:53.352Z,244.27
2023-02-20T02:02:03.435Z,243.67
2023-02-20T02:02:13.414Z,243.39
2023-02-20T02:02:23.346Z,243.53
2023-02-20T02:02:33.345Z,243.41
2023-02-20T02:02:43.379Z,243.72
2023-02-20T02:02:53.372Z,242.87
2023-02-20T02:03:03.384Z,242.82
2023-02-20T02:03:13.379Z,242.99
2023-02-20T02:03:23.389Z,243.28
2023-02-20T02:03:33.382Z,244.06
2023-02-20T02:03:43.399Z,245.17
2023-02-20T02:03:53.424Z,245.63
2023-02-20T02:04:03.401Z,245.16
2023-02-20T02:04:13.430Z,244.99
2023-02-20T02:04:23.441Z,244.95
2023-02-20T02:04:33.437Z,245.01
2023-02-20T02:04:43.465Z,244.49